sensor_id;sensor_type;location;lat;lon;timestamp;pressure;altitude;pressure_sealevel;temperature;humidity
35507;BME280;36461;52.018;21.036;2023-10-19T00:00:44;99945.59;;;-0.51;86.21
35507;BME280;36461;52.018;21.036;2023-10-19T00:03:33;99948.98;;;-0.53;86.14
35507;BME280;36461;52.018;21.036;2023-10-19T00:06:02;99943.17;;;-0.57;86.03
35507;BME280;36461;52.018;21.036;2023-10-19T00:08:31;99939.92;;;-0.60;86.16
35507;BME280;36461;52.018;21.036;2023-10-19T00:11:25;99932.93;;;-0.64;86.14
35507;BME280;36461;52.018;21.036;2023-10-19T00:13:54;99929.86;;;-0.66;86.10
35507;BME280;36461;52.018;21.036;2023-10-19T00:16:23;99928.31;;;-0.70;86.25
35507;BME280;36461;52.018;21.036;2023-10-19T00:18:57;99925.55;;;-0.75;86.32
35507;BME280;36461;52.018;21.036;2023-10-19T00:21:27;99923.00;;;-0.76;86.35
35507;BME280;36461;52.018;21.036;2023-10-19T00:23:57;99920.11;;;-0.75;86.43
35507;BME280;36461;52.018;21.036;2023-10-19T00:26:27;99921.34;;;-0.72;86.44
35507;BME280;36461;52.018;21.036;2023-10-19T00:29:00;99915.23;;;-0.70;86.33
35507;BME280;36461;52.018;21.036;2023-10-19T00:31:43;99912.35;;;-0.67;86.66
35507;BME280;36461;52.018;21.036;2023-10-19T00:34:12;99904.04;;;-0.65;86.53
35507;BME280;36461;52.018;21.036;2023-10-19T00:36:41;99906.27;;;-0.63;86.61
35507;BME280;36461;52.018;21.036;2023-10-19T00:39:09;99904.23;;;-0.61;86.80
35507;BME280;36461;52.018;21.036;2023-10-19T00:41:50;99900.48;;;-0.61;86.64
35507;BME280;36461;52.018;21.036;2023-10-19T00:44:18;99896.73;;;-0.63;86.74
35507;BME280;36461;52.018;21.036;2023-10-19T00:47:10;99893.51;;;-0.65;86.54
35507;BME280;36461;52.018;21.036;2023-10-19T00:49:41;99892.64;;;-0.67;86.74
35507;BME280;36461;52.018;21.036;2023-10-19T00:52:12;99886.69;;;-0.69;86.75
35507;BME280;36461;52.018;21.036;2023-10-19T00:54:51;99886.00;;;-0.70;86.89
35507;BME280;36461;52.018;21.036;2023-10-19T00:57:21;99876.83;;;-0.71;86.87
35507;BME280;36461;52.018;21.036;2023-10-19T01:00:01;99872.23;;;-0.71;86.83
35507;BME280;36461;52.018;21.036;2023-10-19T01:02:50;99873.23;;;-0.73;86.75
35507;BME280;36461;52.018;21.036;2023-10-19T01:05:20;99870.19;;;-0.71;86.91
35507;BME280;36461;52.018;21.036;2023-10-19T01:07:51;99868.17;;;-0.66;87.22
35507;BME280;36461;52.018;21.036;2023-10-19T01:10:28;99868.55;;;-0.60;87.12
35507;BME280;36461;52.018;21.036;2023-10-19T01:12:57;99864.66;;;-0.57;87.15
35507;BME280;36461;52.018;21.036;2023-10-19T01:15:27;99857.54;;;-0.54;86.96
35507;BME280;36461;52.018;21.036;2023-10-19T01:17:57;99853.80;;;-0.52;87.07
35507;BME280;36461;52.018;21.036;2023-10-19T01:20:27;99852.94;;;-0.53;87.03
35507;BME280;36461;52.018;21.036;2023-10-19T01:23:05;99855.14;;;-0.54;86.90
35507;BME280;36461;52.018;21.036;2023-10-19T01:28:09;99856.48;;;-0.61;87.05
35507;BME280;36461;52.018;21.036;2023-10-19T01:30:38;99847.98;;;-0.64;87.36
35507;BME280;36461;52.018;21.036;2023-10-19T01:33:07;99846.09;;;-0.65;87.34
35507;BME280;36461;52.018;21.036;2023-10-19T01:35:45;99842.67;;;-0.68;87.14
35507;BME280;36461;52.018;21.036;2023-10-19T01:38:32;99837.90;;;-0.72;87.53
35507;BME280;36461;52.018;21.036;2023-10-19T01:41:02;99835.68;;;-0.73;87.41
35507;BME280;36461;52.018;21.036;2023-10-19T01:43:33;99837.06;;;-0.72;87.23
35507;BME280;36461;52.018;21.036;2023-10-19T01:46:02;99839.44;;;-0.72;87.24
35507;BME280;36461;52.018;21.036;2023-10-19T01:48:35;99838.61;;;-0.68;87.37
35507;BME280;36461;52.018;21.036;2023-10-19T01:51:05;99838.10;;;-0.66;87.16
35507;BME280;36461;52.018;21.036;2023-10-19T01:53:34;99839.46;;;-0.65;87.37
35507;BME280;36461;52.018;21.036;2023-10-19T01:56:07;99838.62;;;-0.63;87.33
35507;BME280;36461;52.018;21.036;2023-10-19T01:58:37;99839.46;;;-0.63;87.54
35507;BME280;36461;52.018;21.036;2023-10-19T02:01:08;99835.89;;;-0.65;87.33
35507;BME280;36461;52.018;21.036;2023-10-19T02:03:59;99834.70;;;-0.68;87.31
35507;BME280;36461;52.018;21.036;2023-10-19T02:06:30;99831.60;;;-0.72;87.10
35507;BME280;36461;52.018;21.036;2023-10-19T02:09:12;99827.52;;;-0.76;87.19
35507;BME280;36461;52.018;21.036;2023-10-19T02:11:44;99819.68;;;-0.79;87.42
35507;BME280;36461;52.018;21.036;2023-10-19T02:14:17;99810.83;;;-0.82;87.57
35507;BME280;36461;52.018;21.036;2023-10-19T02:16:52;99809.80;;;-0.84;87.47
35507;BME280;36461;52.018;21.036;2023-10-19T02:19:21;99803.51;;;-0.87;87.46
35507;BME280;36461;52.018;21.036;2023-10-19T02:21:57;99805.72;;;-0.87;87.52
35507;BME280;36461;52.018;21.036;2023-10-19T02:24:26;99805.89;;;-0.86;87.34
35507;BME280;36461;52.018;21.036;2023-10-19T02:26:56;99803.52;;;-0.85;87.66
35507;BME280;36461;52.018;21.036;2023-10-19T02:29:25;99800.81;;;-0.82;87.44
35507;BME280;36461;52.018;21.036;2023-10-19T02:31:55;99795.38;;;-0.80;87.46
35507;BME280;36461;52.018;21.036;2023-10-19T02:34:25;99792.84;;;-0.78;87.72
35507;BME280;36461;52.018;21.036;2023-10-19T02:36:53;99792.52;;;-0.78;87.55
35507;BME280;36461;52.018;21.036;2023-10-19T02:39:22;99786.90;;;-0.78;87.65
35507;BME280;36461;52.018;21.036;2023-10-19T02:41:56;99787.57;;;-0.80;87.56
35507;BME280;36461;52.018;21.036;2023-10-19T02:44:25;99780.60;;;-0.81;87.73
35507;BME280;36461;52.018;21.036;2023-10-19T02:46:59;99778.04;;;-0.83;87.69
35507;BME280;36461;52.018;21.036;2023-10-19T02:49:30;99774.79;;;-0.88;87.57
35507;BME280;36461;52.018;21.036;2023-10-19T02:51:59;99770.20;;;-0.92;87.58
35507;BME280;36461;52.018;21.036;2023-10-19T02:54:32;99767.46;;;-0.95;87.79
35507;BME280;36461;52.018;21.036;2023-10-19T02:57:03;99763.88;;;-0.99;87.85
35507;BME280;36461;52.018;21.036;2023-10-19T02:59:36;99762.52;;;-0.99;87.90
35507;BME280;36461;52.018;21.036;2023-10-19T03:02:04;99766.94;;;-0.98;87.76
35507;BME280;36461;52.018;21.036;2023-10-19T03:04:40;99763.36;;;-0.97;87.87
35507;BME280;36461;52.018;21.036;2023-10-19T03:07:10;99761.69;;;-0.95;87.78
35507;BME280;36461;52.018;21.036;2023-10-19T03:09:40;99758.81;;;-0.92;87.91
35507;BME280;36461;52.018;21.036;2023-10-19T03:12:17;99754.73;;;-0.90;87.69
35507;BME280;36461;52.018;21.036;2023-10-19T03:14:46;99750.00;;;-0.90;87.61
35507;BME280;36461;52.018;21.036;2023-10-19T03:17:16;99745.73;;;-0.91;87.72
35507;BME280;36461;52.018;21.036;2023-10-19T03:19:44;99747.77;;;-0.92;87.74
35507;BME280;36461;52.018;21.036;2023-10-19T03:22:14;99738.92;;;-0.93;87.72
35507;BME280;36461;52.018;21.036;2023-10-19T03:24:43;99736.39;;;-0.94;87.85
35507;BME280;36461;52.018;21.036;2023-10-19T03:27:13;99730.08;;;-0.96;88.01
35507;BME280;36461;52.018;21.036;2023-10-19T03:29:52;99731.94;;;-0.99;87.96
35507;BME280;36461;52.018;21.036;2023-10-19T03:32:25;99727.50;;;-1.05;87.92
35507;BME280;36461;52.018;21.036;2023-10-19T03:35:04;99720.17;;;-1.10;87.98
35507;BME280;36461;52.018;21.036;2023-10-19T03:37:33;99716.42;;;-1.14;87.98
35507;BME280;36461;52.018;21.036;2023-10-19T03:40:04;99710.46;;;-1.18;88.09
35507;BME280;36461;52.018;21.036;2023-10-19T03:42:37;99704.01;;;-1.21;88.17
35507;BME280;36461;52.018;21.036;2023-10-19T03:45:15;99699.42;;;-1.19;88.32
35507;BME280;36461;52.018;21.036;2023-10-19T03:47:43;99694.67;;;-1.17;88.33
35507;BME280;36461;52.018;21.036;2023-10-19T03:50:12;99693.85;;;-1.13;88.33
35507;BME280;36461;52.018;21.036;2023-10-19T03:52:42;99688.42;;;-1.08;88.35
35507;BME280;36461;52.018;21.036;2023-10-19T03:55:10;99686.06;;;-1.04;88.65
35507;BME280;36461;52.018;21.036;2023-10-19T03:57:52;99683.88;;;-1.00;88.35
35507;BME280;36461;52.018;21.036;2023-10-19T04:00:24;99674.70;;;-0.99;88.42
35507;BME280;36461;52.018;21.036;2023-10-19T04:02:57;99669.27;;;-1.01;88.27
35507;BME280;36461;52.018;21.036;2023-10-19T04:05:27;99662.47;;;-1.03;88.41
35507;BME280;36461;52.018;21.036;2023-10-19T04:07:57;99663.65;;;-1.05;88.52
35507;BME280;36461;52.018;21.036;2023-10-19T04:10:26;99664.31;;;-1.06;88.46
35507;BME280;36461;52.018;21.036;2023-10-19T04:13:04;99661.60;;;-1.10;88.55
35507;BME280;36461;52.018;21.036;2023-10-19T04:15:32;99662.77;;;-1.10;88.76
35507;BME280;36461;52.018;21.036;2023-10-19T04:18:04;99657.69;;;-1.12;88.90
35507;BME280;36461;52.018;21.036;2023-10-19T04:20:39;99655.82;;;-1.12;88.95
35507;BME280;36461;52.018;21.036;2023-10-19T04:23:23;99651.23;;;-1.12;89.08
35507;BME280;36461;52.018;21.036;2023-10-19T04:26:03;99642.73;;;-1.09;88.91
35507;BME280;36461;52.018;21.036;2023-10-19T04:28:33;99639.52;;;-1.06;89.19
35507;BME280;36461;52.018;21.036;2023-10-19T04:31:17;99634.11;;;-1.01;89.15
35507;BME280;36461;52.018;21.036;2023-10-19T04:33:47;99633.61;;;-0.98;88.98
35507;BME280;36461;52.018;21.036;2023-10-19T04:36:16;99631.57;;;-0.96;89.06
35507;BME280;36461;52.018;21.036;2023-10-19T04:38:44;99631.08;;;-0.95;89.19
35507;BME280;36461;52.018;21.036;2023-10-19T04:41:12;99627.67;;;-0.96;88.93
35507;BME280;36461;52.018;21.036;2023-10-19T04:43:41;99625.80;;;-0.97;89.25
35507;BME280;36461;52.018;21.036;2023-10-19T04:46:11;99628.51;;;-0.99;89.03
35507;BME280;36461;52.018;21.036;2023-10-19T04:48:40;99627.66;;;-1.01;89.15
35507;BME280;36461;52.018;21.036;2023-10-19T04:51:10;99626.64;;;-1.02;89.23
35507;BME280;36461;52.018;21.036;2023-10-19T04:53:39;99624.60;;;-1.03;89.41
35507;BME280;36461;52.018;21.036;2023-10-19T04:56:08;99619.84;;;-1.03;89.67
35507;BME280;36461;52.018;21.036;2023-10-19T04:58:40;99621.39;;;-1.02;89.70
35507;BME280;36461;52.018;21.036;2023-10-19T05:01:09;99622.73;;;-1.00;89.64
35507;BME280;36461;52.018;21.036;2023-10-19T05:03:43;99617.31;;;-0.98;89.67
35507;BME280;36461;52.018;21.036;2023-10-19T05:06:12;99612.39;;;-0.95;89.74
35507;BME280;36461;52.018;21.036;2023-10-19T05:08:41;99609.84;;;-0.91;89.73
35507;BME280;36461;52.018;21.036;2023-10-19T05:11:09;99615.80;;;-0.87;89.82
35507;BME280;36461;52.018;21.036;2023-10-19T05:13:37;99616.48;;;-0.84;89.53
35507;BME280;36461;52.018;21.036;2023-10-19T05:16:07;99616.33;;;-0.83;89.66
35507;BME280;36461;52.018;21.036;2023-10-19T05:18:36;99615.81;;;-0.81;89.82
35507;BME280;36461;52.018;21.036;2023-10-19T05:21:04;99614.79;;;-0.79;89.85
35507;BME280;36461;52.018;21.036;2023-10-19T05:23:33;99610.55;;;-0.79;89.82
35507;BME280;36461;52.018;21.036;2023-10-19T05:26:02;99612.59;;;-0.78;89.76
35507;BME280;36461;52.018;21.036;2023-10-19T05:28:30;99618.03;;;-0.76;89.90
35507;BME280;36461;52.018;21.036;2023-10-19T05:30:59;99622.11;;;-0.73;89.98
35507;BME280;36461;52.018;21.036;2023-10-19T05:33:27;99617.53;;;-0.66;90.23
35507;BME280;36461;52.018;21.036;2023-10-19T05:35:57;99614.48;;;-0.59;90.17
35507;BME280;36461;52.018;21.036;2023-10-19T05:38:25;99616.02;;;-0.51;90.15
35507;BME280;36461;52.018;21.036;2023-10-19T05:40:57;99616.19;;;-0.43;90.15
35507;BME280;36461;52.018;21.036;2023-10-19T05:43:25;99615.67;;;-0.33;89.95
35507;BME280;36461;52.018;21.036;2023-10-19T05:45:54;99619.23;;;-0.25;89.80
35507;BME280;36461;52.018;21.036;2023-10-19T05:48:22;99617.89;;;-0.19;89.99
35507;BME280;36461;52.018;21.036;2023-10-19T05:50:52;99616.67;;;-0.13;89.99
35507;BME280;36461;52.018;21.036;2023-10-19T05:53:20;99618.90;;;-0.08;89.91
35507;BME280;36461;52.018;21.036;2023-10-19T05:55:50;99624.83;;;-0.04;89.80
35507;BME280;36461;52.018;21.036;2023-10-19T05:58:18;99617.17;;;-0.02;89.72
35507;BME280;36461;52.018;21.036;2023-10-19T06:00:48;99615.66;;;-0.00;89.58
35507;BME280;36461;52.018;21.036;2023-10-19T06:03:21;99612.59;;;0.01;89.55
35507;BME280;36461;52.018;21.036;2023-10-19T06:05:50;99608.17;;;-0.00;89.45
35507;BME280;36461;52.018;21.036;2023-10-19T06:08:18;99599.83;;;0.01;89.67
35507;BME280;36461;52.018;21.036;2023-10-19T06:10:51;99590.80;;;0.04;89.71
35507;BME280;36461;52.018;21.036;2023-10-19T06:13:20;99586.55;;;0.08;89.88
35507;BME280;36461;52.018;21.036;2023-10-19T06:15:50;99587.73;;;0.12;90.01
35507;BME280;36461;52.018;21.036;2023-10-19T06:18:19;99581.41;;;0.18;90.42
35507;BME280;36461;52.018;21.036;2023-10-19T06:20:48;99579.35;;;0.27;90.19
35507;BME280;36461;52.018;21.036;2023-10-19T06:23:19;99580.01;;;0.37;90.42
35507;BME280;36461;52.018;21.036;2023-10-19T06:25:47;99578.25;;;0.48;90.29
35507;BME280;36461;52.018;21.036;2023-10-19T06:28:15;99579.89;;;0.61;90.61
35507;BME280;36461;52.018;21.036;2023-10-19T06:30:44;99578.64;;;0.74;90.68
35507;BME280;36461;52.018;21.036;2023-10-19T06:33:13;99571.75;;;0.87;90.68
35507;BME280;36461;52.018;21.036;2023-10-19T06:35:41;99571.70;;;0.98;90.74
35507;BME280;36461;52.018;21.036;2023-10-19T06:38:09;99567.55;;;1.06;90.55
35507;BME280;36461;52.018;21.036;2023-10-19T06:40:38;99566.65;;;1.13;90.47
35507;BME280;36461;52.018;21.036;2023-10-19T06:43:06;99558.77;;;1.19;90.24
35507;BME280;36461;52.018;21.036;2023-10-19T06:45:34;99553.79;;;1.24;90.67
35507;BME280;36461;52.018;21.036;2023-10-19T06:48:03;99551.54;;;1.29;90.62
35507;BME280;36461;52.018;21.036;2023-10-19T06:50:32;99551.50;;;1.33;90.34
35507;BME280;36461;52.018;21.036;2023-10-19T06:53:01;99554.02;;;1.39;90.92
35507;BME280;36461;52.018;21.036;2023-10-19T06:55:33;99554.45;;;1.48;90.77
35507;BME280;36461;52.018;21.036;2023-10-19T06:58:02;99551.65;;;1.57;90.79
35507;BME280;36461;52.018;21.036;2023-10-19T07:00:30;99543.19;;;1.67;90.98
35507;BME280;36461;52.018;21.036;2023-10-19T07:02:59;99544.63;;;1.78;90.94
35507;BME280;36461;52.018;21.036;2023-10-19T07:13:07;99518.73;;;2.21;90.34
35507;BME280;36461;52.018;21.036;2023-10-19T07:15:36;99517.79;;;2.28;90.59
35507;BME280;36461;52.018;21.036;2023-10-19T07:18:05;99509.84;;;2.37;90.93
35507;BME280;36461;52.018;21.036;2023-10-19T07:20:34;99509.55;;;2.45;90.62
35507;BME280;36461;52.018;21.036;2023-10-19T07:23:06;99509.11;;;2.54;90.62
35507;BME280;36461;52.018;21.036;2023-10-19T07:25:38;99510.71;;;2.61;90.46
35507;BME280;36461;52.018;21.036;2023-10-19T07:28:12;99509.18;;;2.73;90.76
35507;BME280;36461;52.018;21.036;2023-10-19T07:30:42;99498.78;;;2.83;90.67
35507;BME280;36461;52.018;21.036;2023-10-19T07:33:12;99496.52;;;2.96;90.89
35507;BME280;36461;52.018;21.036;2023-10-19T07:35:49;99503.49;;;3.10;90.91
35507;BME280;36461;52.018;21.036;2023-10-19T07:38:44;99496.90;;;3.27;90.85
35507;BME280;36461;52.018;21.036;2023-10-19T07:41:14;99492.59;;;3.39;91.08
35507;BME280;36461;52.018;21.036;2023-10-19T07:43:42;99492.24;;;3.49;91.17
35507;BME280;36461;52.018;21.036;2023-10-19T07:46:12;99483.98;;;3.61;91.57
35507;BME280;36461;52.018;21.036;2023-10-19T07:48:41;99481.70;;;3.74;91.36
35507;BME280;36461;52.018;21.036;2023-10-19T07:51:09;99485.89;;;3.88;91.42
35507;BME280;36461;52.018;21.036;2023-10-19T07:53:39;99491.05;;;4.05;91.34
35507;BME280;36461;52.018;21.036;2023-10-19T07:56:07;99492.70;;;4.25;91.94
35507;BME280;36461;52.018;21.036;2023-10-19T07:58:36;99487.25;;;4.48;91.53
35507;BME280;36461;52.018;21.036;2023-10-19T08:01:04;99488.73;;;4.66;91.81
35507;BME280;36461;52.018;21.036;2023-10-19T08:03:34;99484.02;;;4.84;91.53
35507;BME280;36461;52.018;21.036;2023-10-19T08:06:03;99480.60;;;4.99;91.33
35507;BME280;36461;52.018;21.036;2023-10-19T08:08:34;99476.99;;;5.13;91.19
35507;BME280;36461;52.018;21.036;2023-10-19T08:11:03;99471.66;;;5.28;91.02
35507;BME280;36461;52.018;21.036;2023-10-19T08:13:31;99464.45;;;5.42;90.64
35507;BME280;36461;52.018;21.036;2023-10-19T08:16:00;99456.89;;;5.56;90.45
35507;BME280;36461;52.018;21.036;2023-10-19T08:18:29;99452.70;;;5.70;90.44
35507;BME280;36461;52.018;21.036;2023-10-19T08:20:58;99439.70;;;5.82;89.96
35507;BME280;36461;52.018;21.036;2023-10-19T08:23:27;99435.60;;;5.94;89.69
35507;BME280;36461;52.018;21.036;2023-10-19T08:25:55;99427.45;;;6.03;89.24
35507;BME280;36461;52.018;21.036;2023-10-19T08:28:24;99423.52;;;6.08;88.90
35507;BME280;36461;52.018;21.036;2023-10-19T08:30:53;99418.65;;;6.16;88.71
35507;BME280;36461;52.018;21.036;2023-10-19T08:33:26;99411.48;;;6.26;88.46
35507;BME280;36461;52.018;21.036;2023-10-19T08:35:56;99410.90;;;6.34;88.28
35507;BME280;36461;52.018;21.036;2023-10-19T08:38:25;99410.90;;;6.45;88.21
35507;BME280;36461;52.018;21.036;2023-10-19T08:40:54;99408.94;;;6.53;87.88
35507;BME280;36461;52.018;21.036;2023-10-19T08:43:23;99405.90;;;6.57;87.61
35507;BME280;36461;52.018;21.036;2023-10-19T08:45:53;99399.11;;;6.60;87.18
35507;BME280;36461;52.018;21.036;2023-10-19T08:48:22;99399.58;;;6.62;86.68
35507;BME280;36461;52.018;21.036;2023-10-19T08:50:51;99399.98;;;6.65;86.19
35507;BME280;36461;52.018;21.036;2023-10-19T08:53:21;99399.24;;;6.66;86.23
35507;BME280;36461;52.018;21.036;2023-10-19T08:55:50;99394.02;;;6.69;85.85
35507;BME280;36461;52.018;21.036;2023-10-19T08:58:19;99390.64;;;6.72;85.81
35507;BME280;36461;52.018;21.036;2023-10-19T09:00:50;99382.67;;;6.79;85.82
35507;BME280;36461;52.018;21.036;2023-10-19T09:03:25;99378.20;;;6.89;85.55
35507;BME280;36461;52.018;21.036;2023-10-19T09:05:55;99378.34;;;7.01;85.66
35507;BME280;36461;52.018;21.036;2023-10-19T09:08:24;99370.80;;;7.15;85.64
35507;BME280;36461;52.018;21.036;2023-10-19T09:10:53;99362.20;;;7.30;85.58
35507;BME280;36461;52.018;21.036;2023-10-19T09:13:23;99362.90;;;7.44;85.23
35507;BME280;36461;52.018;21.036;2023-10-19T09:15:53;99353.98;;;7.58;84.82
35507;BME280;36461;52.018;21.036;2023-10-19T09:18:24;99342.97;;;7.72;84.44
35507;BME280;36461;52.018;21.036;2023-10-19T09:20:57;99338.02;;;7.84;84.45
35507;BME280;36461;52.018;21.036;2023-10-19T09:23:36;99333.23;;;7.97;83.77
35507;BME280;36461;52.018;21.036;2023-10-19T09:26:05;99341.06;;;8.04;83.07
35507;BME280;36461;52.018;21.036;2023-10-19T09:28:36;99337.70;;;8.11;82.80
35507;BME280;36461;52.018;21.036;2023-10-19T09:31:06;99334.14;;;8.18;82.48
35507;BME280;36461;52.018;21.036;2023-10-19T09:33:40;99329.99;;;8.23;81.98
35507;BME280;36461;52.018;21.036;2023-10-19T09:36:10;99328.10;;;8.32;81.97
35507;BME280;36461;52.018;21.036;2023-10-19T09:38:49;99315.15;;;8.41;81.96
35507;BME280;36461;52.018;21.036;2023-10-19T09:41:19;99309.23;;;8.51;81.58
35507;BME280;36461;52.018;21.036;2023-10-19T09:43:49;99304.95;;;8.59;81.53
35507;BME280;36461;52.018;21.036;2023-10-19T09:46:30;99297.79;;;8.66;81.31
35507;BME280;36461;52.018;21.036;2023-10-19T09:48:59;99285.31;;;8.75;81.10
35507;BME280;36461;52.018;21.036;2023-10-19T09:51:28;99282.55;;;8.88;80.87
35507;BME280;36461;52.018;21.036;2023-10-19T09:54:49;99274.14;;;9.02;80.63
35507;BME280;36461;52.018;21.036;2023-10-19T09:56:58;99262.95;;;9.17;79.99
35507;BME280;36461;52.018;21.036;2023-10-19T09:59:35;99252.58;;;9.34;80.20
35507;BME280;36461;52.018;21.036;2023-10-19T10:02:13;99245.14;;;9.46;80.25
35507;BME280;36461;52.018;21.036;2023-10-19T10:04:43;99247.34;;;9.50;79.90
35507;BME280;36461;52.018;21.036;2023-10-19T10:07:18;99242.61;;;9.48;79.30
35507;BME280;36461;52.018;21.036;2023-10-19T10:10:06;99239.20;;;9.43;78.07
35507;BME280;36461;52.018;21.036;2023-10-19T10:12:35;99241.08;;;9.43;77.71
35507;BME280;36461;52.018;21.036;2023-10-19T10:15:05;99234.27;;;9.52;77.53
35507;BME280;36461;52.018;21.036;2023-10-19T10:17:38;99224.30;;;9.66;77.46
35507;BME280;36461;52.018;21.036;2023-10-19T10:22:42;99221.15;;;9.89;76.74
35507;BME280;36461;52.018;21.036;2023-10-19T10:25:26;99220.65;;;10.00;76.56
35507;BME280;36461;52.018;21.036;2023-10-19T10:27:56;99222.05;;;10.14;76.48
35507;BME280;36461;52.018;21.036;2023-10-19T10:30:24;99216.41;;;10.26;76.07
35507;BME280;36461;52.018;21.036;2023-10-19T10:32:53;99207.00;;;10.42;76.37
35507;BME280;36461;52.018;21.036;2023-10-19T10:35:53;99197.55;;;10.51;75.17
35507;BME280;36461;52.018;21.036;2023-10-19T10:38:22;99200.08;;;10.63;74.77
35507;BME280;36461;52.018;21.036;2023-10-19T10:40:50;99201.20;;;10.75;74.40
35507;BME280;36461;52.018;21.036;2023-10-19T10:43:19;99197.27;;;10.91;74.93
35507;BME280;36461;52.018;21.036;2023-10-19T10:45:49;99196.30;;;11.09;74.64
35507;BME280;36461;52.018;21.036;2023-10-19T10:48:18;99193.17;;;11.22;74.17
35507;BME280;36461;52.018;21.036;2023-10-19T10:50:50;99193.50;;;11.29;73.01
35507;BME280;36461;52.018;21.036;2023-10-19T10:53:18;99192.51;;;11.35;72.30
35507;BME280;36461;52.018;21.036;2023-10-19T10:55:46;99190.69;;;11.33;72.27
35507;BME280;36461;52.018;21.036;2023-10-19T10:58:17;99181.65;;;11.37;72.23
35507;BME280;36461;52.018;21.036;2023-10-19T11:00:46;99176.98;;;11.43;72.05
35507;BME280;36461;52.018;21.036;2023-10-19T11:03:22;99165.15;;;11.44;71.47
35507;BME280;36461;52.018;21.036;2023-10-19T11:05:52;99155.58;;;11.41;70.77
35507;BME280;36461;52.018;21.036;2023-10-19T11:08:24;99152.30;;;11.38;70.44
35507;BME280;36461;52.018;21.036;2023-10-19T11:10:52;99152.55;;;11.37;70.26
35507;BME280;36461;52.018;21.036;2023-10-19T11:13:23;99146.48;;;11.37;70.00
35507;BME280;36461;52.018;21.036;2023-10-19T11:15:55;99144.20;;;11.37;69.98
35507;BME280;36461;52.018;21.036;2023-10-19T11:21:07;99135.39;;;11.49;69.63
35507;BME280;36461;52.018;21.036;2023-10-19T11:23:39;99133.69;;;11.55;69.81
35507;BME280;36461;52.018;21.036;2023-10-19T11:26:09;99135.11;;;11.60;69.81
35507;BME280;36461;52.018;21.036;2023-10-19T11:28:39;99136.44;;;11.65;69.19
35507;BME280;36461;52.018;21.036;2023-10-19T11:33:43;99121.89;;;11.58;68.49
35507;BME280;36461;52.018;21.036;2023-10-19T11:36:12;99116.23;;;11.57;68.46
35507;BME280;36461;52.018;21.036;2023-10-19T11:38:45;99114.77;;;11.52;68.56
35507;BME280;36461;52.018;21.036;2023-10-19T11:41:15;99116.08;;;11.51;68.42
35507;BME280;36461;52.018;21.036;2023-10-19T11:43:47;99116.40;;;11.45;68.37
35507;BME280;36461;52.018;21.036;2023-10-19T11:46:17;99102.55;;;11.35;68.02
35507;BME280;36461;52.018;21.036;2023-10-19T11:48:46;99094.14;;;11.22;67.41
35507;BME280;36461;52.018;21.036;2023-10-19T11:51:14;99098.36;;;11.11;67.59
35507;BME280;36461;52.018;21.036;2023-10-19T11:53:43;99108.19;;;11.05;67.67
35507;BME280;36461;52.018;21.036;2023-10-19T11:56:12;99097.96;;;11.02;68.03
35507;BME280;36461;52.018;21.036;2023-10-19T11:58:41;99097.05;;;11.00;68.26
35507;BME280;36461;52.018;21.036;2023-10-19T12:01:10;99098.84;;;10.93;68.51
35507;BME280;36461;52.018;21.036;2023-10-19T12:03:42;99094.89;;;10.85;68.66
35507;BME280;36461;52.018;21.036;2023-10-19T12:06:14;99089.69;;;10.83;68.95
35507;BME280;36461;52.018;21.036;2023-10-19T12:08:51;99092.39;;;10.78;69.33
35507;BME280;36461;52.018;21.036;2023-10-19T12:11:20;99097.52;;;10.72;69.17
35507;BME280;36461;52.018;21.036;2023-10-19T12:13:50;99100.96;;;10.66;68.99
35507;BME280;36461;52.018;21.036;2023-10-19T12:16:18;99099.63;;;10.58;69.14
35507;BME280;36461;52.018;21.036;2023-10-19T12:18:48;99101.23;;;10.54;69.08
35507;BME280;36461;52.018;21.036;2023-10-19T12:21:16;99089.48;;;10.53;69.59
35507;BME280;36461;52.018;21.036;2023-10-19T12:23:46;99083.02;;;10.55;69.97
35507;BME280;36461;52.018;21.036;2023-10-19T12:26:24;99079.13;;;10.53;70.05
35507;BME280;36461;52.018;21.036;2023-10-19T12:28:52;99072.27;;;10.49;70.31
35507;BME280;36461;52.018;21.036;2023-10-19T12:31:21;99075.79;;;10.48;70.35
35507;BME280;36461;52.018;21.036;2023-10-19T12:33:51;99065.30;;;10.47;70.58
35507;BME280;36461;52.018;21.036;2023-10-19T12:36:20;99050.55;;;10.44;70.68
35507;BME280;36461;52.018;21.036;2023-10-19T12:38:59;99048.17;;;10.44;70.29
35507;BME280;36461;52.018;21.036;2023-10-19T12:41:28;99050.65;;;10.46;70.43
35507;BME280;36461;52.018;21.036;2023-10-19T12:43:56;99051.41;;;10.48;69.86
35507;BME280;36461;52.018;21.036;2023-10-19T12:46:30;99051.77;;;10.51;69.98
35507;BME280;36461;52.018;21.036;2023-10-19T12:48:59;99052.01;;;10.53;70.19
35507;BME280;36461;52.018;21.036;2023-10-19T12:51:27;99050.02;;;10.51;70.00
35507;BME280;36461;52.018;21.036;2023-10-19T12:53:56;99045.09;;;10.49;70.08
35507;BME280;36461;52.018;21.036;2023-10-19T12:56:24;99048.17;;;10.50;70.22
35507;BME280;36461;52.018;21.036;2023-10-19T12:58:52;99042.90;;;10.48;70.27
35507;BME280;36461;52.018;21.036;2023-10-19T13:01:22;99037.52;;;10.49;69.96
35507;BME280;36461;52.018;21.036;2023-10-19T13:03:50;99037.96;;;10.47;70.06
35507;BME280;36461;52.018;21.036;2023-10-19T13:06:19;99036.91;;;10.44;69.80
35507;BME280;36461;52.018;21.036;2023-10-19T13:08:48;99030.27;;;10.42;69.93
35507;BME280;36461;52.018;21.036;2023-10-19T13:11:16;99026.56;;;10.40;70.33
35507;BME280;36461;52.018;21.036;2023-10-19T13:13:46;99019.52;;;10.39;70.57
35507;BME280;36461;52.018;21.036;2023-10-19T13:16:15;99018.82;;;10.36;70.42
35507;BME280;36461;52.018;21.036;2023-10-19T13:18:44;99019.86;;;10.32;69.99
35507;BME280;36461;52.018;21.036;2023-10-19T13:21:13;99021.48;;;10.31;70.35
35507;BME280;36461;52.018;21.036;2023-10-19T13:23:49;99021.70;;;10.30;70.36
35507;BME280;36461;52.018;21.036;2023-10-19T13:26:19;99021.09;;;10.29;70.45
35507;BME280;36461;52.018;21.036;2023-10-19T13:28:47;99025.33;;;10.27;70.95
35507;BME280;36461;52.018;21.036;2023-10-19T13:31:16;99016.29;;;10.24;70.73